Time;durP1;ratioP1;P1;durP2;ratioP2;P2;SDS_P1;SDS_P2;PMS_P1;PMS_P2;Temp;Humidity;BMP_temperature;BMP_pressure;BME280_temperature;BME280_humidity;BME280_pressure;Samples;Min_cycle;Max_cycle;Signal;HPM_P1;HPM_P2
2021/11/21 00:01:12;;;;;;;1.90;1.70;;;12.80;99.90;;;;;;5077732;28;20215;-72
2021/11/21 00:03:40;;;;;;;2.00;1.63;;;12.80;99.90;;;;;;5079341;28;20197;-70
2021/11/21 00:06:08;;;;;;;1.77;1.20;;;12.80;99.90;;;;;;5079759;28;20201;-69
2021/11/21 00:08:35;;;;;;;1.60;1.53;;;12.70;99.90;;;;;;5083775;28;20205;-70
2021/11/21 00:11:04;;;;;;;1.60;1.50;;;12.70;99.90;;;;;;5083226;28;20291;-70
2021/11/21 00:13:31;;;;;;;2.67;1.43;;;12.70;99.90;;;;;;5083192;28;20519;-70
2021/11/21 00:16:00;;;;;;;1.43;1.33;;;12.70;99.90;;;;;;5082488;28;20244;-70
2021/11/21 00:18:27;;;;;;;1.43;1.20;;;12.70;99.90;;;;;;5084024;28;20184;-70
2021/11/21 00:20:54;;;;;;;2.40;1.47;;;12.70;99.90;;;;;;5082515;28;20223;-70
2021/11/21 00:23:22;;;;;;;1.93;1.63;;;12.60;99.90;;;;;;5081765;28;20652;-71
2021/11/21 00:25:50;;;;;;;1.40;1.20;;;12.60;99.90;;;;;;5083384;28;20200;-71
2021/11/21 00:28:18;;;;;;;1.40;1.20;;;12.70;99.90;;;;;;5083874;28;20625;-70
2021/11/21 00:30:45;;;;;;;1.20;1.10;;;12.60;99.90;;;;;;5082909;28;20189;-71
2021/11/21 00:33:12;;;;;;;1.77;1.20;;;12.50;99.90;;;;;;5083572;28;20587;-71
2021/11/21 00:35:39;;;;;;;0.97;0.90;;;12.70;99.90;;;;;;5082066;28;20244;-71
2021/11/21 00:38:07;;;;;;;1.07;0.97;;;12.60;99.90;;;;;;5083976;28;20543;-70
2021/11/21 00:40:34;;;;;;;1.37;1.10;;;12.60;99.90;;;;;;5083969;28;20222;-70
2021/11/21 00:43:02;;;;;;;1.20;1.10;;;12.70;99.90;;;;;;5075416;28;20295;-69
2021/11/21 00:45:31;;;;;;;1.17;1.07;;;12.60;99.90;;;;;;5075475;28;20609;-71
2021/11/21 00:47:59;;;;;;;1.30;0.93;;;12.60;99.90;;;;;;5083918;28;20630;-73
2021/11/21 00:50:29;;;;;;;0.97;0.90;;;12.70;99.90;;;;;;5081594;28;20246;-70
2021/11/21 00:53:00;;;;;;;0.83;0.83;;;12.70;99.90;;;;;;5083751;28;20203;-69
2021/11/21 00:55:36;;;;;;;1.03;0.80;;;12.60;99.90;;;;;;5080110;28;20215;-70
2021/11/21 00:58:04;;;;;;;1.97;1.10;;;12.70;99.90;;;;;;5085408;28;20195;-71
2021/11/21 01:00:34;;;;;;;1.00;0.90;;;12.70;99.90;;;;;;5082311;28;20333;-68
2021/11/21 01:03:01;;;;;;;0.50;0.50;;;12.70;99.90;;;;;;5083972;28;20680;-68
2021/11/21 01:05:28;;;;;;;3.00;1.20;;;12.70;99.90;;;;;;5083224;28;20241;-70
2021/11/21 01:07:56;;;;;;;0.90;0.90;;;12.60;99.90;;;;;;5083556;28;20208;-68
2021/11/21 01:10:25;;;;;;;1.77;1.00;;;12.60;99.90;;;;;;5083023;28;20202;-67
2021/11/21 01:12:54;;;;;;;1.77;1.07;;;12.60;99.90;;;;;;5084540;28;20216;-70
2021/11/21 01:15:24;;;;;;;1.70;0.60;;;12.60;99.90;;;;;;5083179;28;20283;-70
2021/11/21 01:17:54;;;;;;;1.13;0.73;;;12.60;99.90;;;;;;5064495;28;20617;-69
2021/11/21 01:20:22;;;;;;;1.77;0.90;;;12.60;99.90;;;;;;5061959;28;20209;-69
2021/11/21 01:22:50;;;;;;;2.23;1.00;;;12.60;99.90;;;;;;5063703;28;20683;-67
2021/11/21 01:25:19;;;;;;;2.93;0.80;;;12.60;99.90;;;;;;5066503;28;20516;-69
2021/11/21 01:27:46;;;;;;;2.50;1.13;;;12.60;99.90;;;;;;5067973;28;20595;-68
2021/11/21 01:30:15;;;;;;;2.00;0.80;;;12.60;99.90;;;;;;5059119;28;20303;-72
2021/11/21 01:32:42;;;;;;;0.80;0.73;;;12.60;99.90;;;;;;5050967;28;20189;-70
2021/11/21 01:35:12;;;;;;;0.67;0.60;;;12.60;99.90;;;;;;5065013;28;20561;-69
2021/11/21 01:37:40;;;;;;;1.40;0.80;;;12.60;99.90;;;;;;5066294;28;20197;-70
2021/11/21 01:40:12;;;;;;;1.13;0.80;;;12.60;99.90;;;;;;5066640;28;20203;-67
2021/11/21 01:42:40;;;;;;;0.70;0.70;;;12.60;99.90;;;;;;5066259;28;20225;-68
2021/11/21 01:45:09;;;;;;;1.90;1.03;;;12.60;99.90;;;;;;5064153;28;20300;-68
2021/11/21 01:47:38;;;;;;;1.00;0.90;;;12.60;99.90;;;;;;5067425;28;20233;-67
2021/11/21 01:50:06;;;;;;;1.43;0.73;;;12.60;99.90;;;;;;5064754;28;20209;-69
2021/11/21 01:52:34;;;;;;;1.17;1.00;;;12.60;99.90;;;;;;5067330;28;20188;-70
2021/11/21 01:55:02;;;;;;;0.80;0.70;;;12.60;99.90;;;;;;5059298;28;20203;-69
2021/11/21 01:57:29;;;;;;;1.57;0.90;;;12.60;99.90;;;;;;5046891;28;20230;-68
2021/11/21 01:59:59;;;;;;;2.00;1.03;;;12.60;99.90;;;;;;5060921;28;20298;-69
2021/11/21 02:02:26;;;;;;;1.37;1.10;;;12.60;99.90;;;;;;5062487;28;20210;-68
2021/11/21 02:04:54;;;;;;;1.00;0.73;;;12.50;99.90;;;;;;5048020;28;20661;-67
2021/11/21 02:07:21;;;;;;;0.83;0.83;;;12.60;99.90;;;;;;5066021;28;20192;-69
2021/11/21 02:09:49;;;;;;;1.87;1.03;;;12.60;99.90;;;;;;5057827;28;20199;-69
2021/11/21 02:12:17;;;;;;;1.17;1.00;;;12.60;99.90;;;;;;5061364;28;20653;-69
2021/11/21 02:14:44;;;;;;;0.83;0.83;;;12.60;99.90;;;;;;5063809;28;20196;-70
2021/11/21 02:17:11;;;;;;;1.93;1.30;;;12.60;99.90;;;;;;5091290;28;20277;-70
2021/11/21 02:19:38;;;;;;;2.10;1.20;;;12.50;99.90;;;;;;5106768;28;20271;-72
2021/11/21 02:22:06;;;;;;;0.83;0.80;;;12.50;99.90;;;;;;5103342;28;20219;-71
2021/11/21 02:24:33;;;;;;;1.63;0.80;;;12.50;99.90;;;;;;5105583;28;20659;-70
2021/11/21 02:27:01;;;;;;;1.70;1.00;;;12.50;99.90;;;;;;5088364;28;20200;-71
2021/11/21 02:29:28;;;;;;;1.23;0.97;;;12.50;99.90;;;;;;5087057;28;20231;-70
2021/11/21 02:31:55;;;;;;;0.70;0.70;;;12.50;99.90;;;;;;5090045;28;20210;-70
2021/11/21 02:34:25;;;;;;;1.80;0.70;;;12.50;99.90;;;;;;5080575;28;20292;-71
2021/11/21 02:36:52;;;;;;;2.20;0.87;;;12.50;99.90;;;;;;5104325;28;20533;-70
2021/11/21 02:39:21;;;;;;;2.50;1.17;;;12.60;99.90;;;;;;5076576;28;20196;-69
2021/11/21 02:41:48;;;;;;;4.40;1.00;;;12.50;99.90;;;;;;5109798;28;20199;-69
2021/11/21 02:44:15;;;;;;;1.43;1.10;;;12.50;99.90;;;;;;5108553;27;20219;-70
2021/11/21 02:46:42;;;;;;;1.27;0.97;;;12.40;99.90;;;;;;5081368;27;20304;-69
2021/11/21 02:49:09;;;;;;;1.07;1.07;;;12.40;99.90;;;;;;5109467;27;20203;-70
2021/11/21 02:51:36;;;;;;;0.80;0.70;;;12.40;99.90;;;;;;5081835;28;20197;-70
2021/11/21 02:54:03;;;;;;;1.77;1.20;;;12.40;99.90;;;;;;5096376;28;20219;-70
2021/11/21 02:56:32;;;;;;;0.80;0.80;;;12.50;99.90;;;;;;5090139;28;20606;-70
2021/11/21 02:58:59;;;;;;;1.17;1.00;;;12.40;99.90;;;;;;5110302;28;20196;-70
2021/11/21 03:01:28;;;;;;;1.00;0.90;;;12.40;99.90;;;;;;5075917;28;20306;-69
2021/11/21 03:03:55;;;;;;;1.00;0.97;;;12.40;99.90;;;;;;5087854;28;20241;-70
2021/11/21 03:06:27;;;;;;;1.67;1.20;;;12.40;99.90;;;;;;5088952;28;20203;-70
2021/11/21 03:08:54;;;;;;;0.83;0.83;;;12.40;99.90;;;;;;5091366;28;20236;-68
2021/11/21 03:11:29;;;;;;;0.80;0.80;;;12.40;99.90;;;;;;5091687;28;20203;-69
2021/11/21 03:13:59;;;;;;;1.30;0.80;;;12.40;99.90;;;;;;5110031;28;20191;-69
2021/11/21 03:16:27;;;;;;;0.70;0.70;;;12.40;99.90;;;;;;5107300;28;20223;-69
2021/11/21 03:18:54;;;;;;;1.30;1.20;;;12.40;99.90;;;;;;5090443;28;20264;-69
2021/11/21 03:21:22;;;;;;;1.10;1.00;;;12.40;99.90;;;;;;5109385;28;20208;-69
2021/11/21 03:23:49;;;;;;;1.30;1.13;;;12.40;99.90;;;;;;5109969;28;20248;-69
2021/11/21 03:26:16;;;;;;;1.40;1.10;;;12.50;99.90;;;;;;5090148;28;20199;-69
2021/11/21 03:28:43;;;;;;;1.63;0.80;;;12.50;99.90;;;;;;5109718;28;20223;-70
2021/11/21 03:31:12;;;;;;;0.70;0.70;;;12.50;99.90;;;;;;5109761;28;20216;-69
2021/11/21 03:33:39;;;;;;;1.00;0.90;;;12.50;99.90;;;;;;5110765;28;20221;-69
2021/11/21 03:36:07;;;;;;;1.33;1.00;;;12.50;99.90;;;;;;5103185;28;20211;-69
2021/11/21 03:38:34;;;;;;;0.80;0.80;;;12.50;99.90;;;;;;5101680;28;20196;-70
2021/11/21 03:41:02;;;;;;;0.90;0.90;;;12.50;99.90;;;;;;5087125;28;20600;-70
2021/11/21 03:43:29;;;;;;;0.67;0.67;;;12.50;99.90;;;;;;5101648;28;20220;-70
2021/11/21 03:45:56;;;;;;;1.03;0.90;;;12.60;99.90;;;;;;5083138;28;20476;-69
2021/11/21 03:48:24;;;;;;;1.07;0.90;;;12.60;99.90;;;;;;5088621;28;20199;-70
2021/11/21 03:50:51;;;;;;;2.10;1.27;;;12.50;99.90;;;;;;5087079;28;20200;-70
2021/11/21 03:53:19;;;;;;;1.53;1.10;;;12.60;99.90;;;;;;5109290;28;20211;-70
2021/11/21 03:55:47;;;;;;;1.37;1.10;;;12.50;99.90;;;;;;5089496;28;20219;-70
2021/11/21 03:58:15;;;;;;;1.07;0.97;;;12.50;99.90;;;;;;5091352;28;20204;-69
2021/11/21 04:00:45;;;;;;;1.10;1.00;;;12.50;99.90;;;;;;5103449;28;20212;-69
2021/11/21 04:03:13;;;;;;;1.10;1.00;;;12.50;99.90;;;;;;5102942;28;20211;-69
2021/11/21 04:05:41;;;;;;;1.03;0.93;;;12.60;99.90;;;;;;5084376;28;20220;-70
2021/11/21 04:08:08;;;;;;;1.33;0.93;;;12.50;99.90;;;;;;5104926;28;20626;-69
2021/11/21 04:10:36;;;;;;;2.20;0.80;;;12.50;99.90;;;;;;5090438;28;20203;-70
2021/11/21 04:13:03;;;;;;;1.77;0.90;;;12.40;99.90;;;;;;5107875;28;20528;-70
2021/11/21 04:15:30;;;;;;;1.30;0.90;;;12.40;99.90;;;;;;5106771;28;20195;-70
2021/11/21 04:17:58;;;;;;;1.33;1.00;;;12.40;99.90;;;;;;5091235;28;20204;-70
2021/11/21 04:20:26;;;;;;;0.90;0.90;;;12.30;99.90;;;;;;5108420;28;20248;-70
2021/11/21 04:22:54;;;;;;;1.13;0.90;;;12.30;99.90;;;;;;5091231;28;20222;-70
2021/11/21 04:25:22;;;;;;;1.77;0.70;;;12.30;99.90;;;;;;5090069;28;20204;-69
2021/11/21 04:27:49;;;;;;;0.63;0.63;;;12.30;99.90;;;;;;5090452;28;20219;-70
2021/11/21 04:30:17;;;;;;;1.57;1.00;;;12.30;99.90;;;;;;5107755;28;20675;-69
2021/11/21 04:32:45;;;;;;;2.27;0.90;;;12.30;99.90;;;;;;5110110;28;20192;-70
2021/11/21 04:35:14;;;;;;;1.43;0.90;;;12.30;99.90;;;;;;5107757;28;20203;-70
2021/11/21 04:37:42;;;;;;;0.60;0.60;;;12.30;99.90;;;;;;5108752;28;20617;-70
2021/11/21 04:40:13;;;;;;;0.77;0.77;;;12.30;99.90;;;;;;5090148;28;20231;-70
2021/11/21 04:42:40;;;;;;;1.30;0.80;;;12.20;99.90;;;;;;5108735;28;20218;-70
2021/11/21 04:45:10;;;;;;;1.60;0.77;;;12.20;99.90;;;;;;5078182;28;20195;-70
2021/11/21 04:47:37;;;;;;;1.20;0.60;;;12.20;99.90;;;;;;5090633;28;20302;-70
2021/11/21 04:50:06;;;;;;;0.90;0.80;;;12.20;99.90;;;;;;5089291;28;20678;-70
2021/11/21 04:52:34;;;;;;;0.47;0.47;;;12.20;99.90;;;;;;5090027;28;20248;-70
2021/11/21 04:55:01;;;;;;;0.57;0.57;;;12.20;99.90;;;;;;5107513;28;20203;-70
2021/11/21 04:57:30;;;;;;;0.67;0.63;;;12.20;99.90;;;;;;5089523;28;20658;-70
2021/11/21 04:59:57;;;;;;;1.77;0.70;;;12.20;99.90;;;;;;5092423;28;20203;-70
2021/11/21 05:02:24;;;;;;;0.70;0.60;;;12.20;99.90;;;;;;5108318;28;20294;-70
2021/11/21 05:04:51;;;;;;;0.70;0.70;;;12.10;99.90;;;;;;5112116;28;20196;-70
2021/11/21 05:07:18;;;;;;;0.70;0.70;;;12.10;99.90;;;;;;5094511;28;20271;-70
2021/11/21 05:09:45;;;;;;;1.00;0.80;;;12.10;99.90;;;;;;5094393;28;20294;-70
2021/11/21 05:12:12;;;;;;;0.60;0.60;;;12.10;99.90;;;;;;5113145;28;20291;-70
2021/11/21 05:14:41;;;;;;;0.50;0.50;;;12.00;99.90;;;;;;5111718;28;20229;-70
2021/11/21 05:17:09;;;;;;;0.50;0.50;;;12.00;99.90;;;;;;5094849;28;20224;-70
2021/11/21 05:19:36;;;;;;;0.60;0.50;;;12.00;99.90;;;;;;5111571;28;20216;-70
2021/11/21 05:22:04;;;;;;;0.40;0.40;;;11.90;99.90;;;;;;5095071;28;20306;-70
2021/11/21 05:24:31;;;;;;;1.70;0.53;;;12.00;99.90;;;;;;5093737;28;20259;-70
2021/11/21 05:26:59;;;;;;;0.50;0.50;;;11.90;99.90;;;;;;5094004;28;20195;-70
2021/11/21 05:29:26;;;;;;;0.60;0.60;;;11.90;99.90;;;;;;5110922;28;20549;-70
2021/11/21 05:31:55;;;;;;;0.57;0.53;;;11.90;99.90;;;;;;5100890;28;20745;-70
2021/11/21 05:34:25;;;;;;;0.40;0.40;;;11.90;99.90;;;;;;5111801;28;20714;-70
2021/11/21 05:36:52;;;;;;;0.50;0.50;;;11.90;99.90;;;;;;5092902;28;20526;-70
2021/11/21 05:39:19;;;;;;;0.60;0.60;;;11.90;99.90;;;;;;5111459;28;20206;-70
2021/11/21 05:41:46;;;;;;;0.50;0.50;;;11.80;99.90;;;;;;5093028;28;20200;-70
2021/11/21 05:44:14;;;;;;;0.47;0.47;;;11.80;99.90;;;;;;5110533;28;20212;-70
2021/11/21 05:46:42;;;;;;;0.50;0.50;;;11.80;99.90;;;;;;5093287;28;20302;-70
2021/11/21 05:49:10;;;;;;;0.50;0.50;;;11.80;99.90;;;;;;5094006;28;20663;-70
2021/11/21 05:51:38;;;;;;;0.40;0.40;;;11.80;99.90;;;;;;5111631;28;20192;-70
2021/11/21 05:54:05;;;;;;;0.73;0.40;;;11.80;99.90;;;;;;5092967;28;20205;-70
2021/11/21 05:56:32;;;;;;;0.60;0.60;;;11.80;99.90;;;;;;5111260;28;20227;-70
2021/11/21 05:58:59;;;;;;;0.40;0.40;;;11.80;99.90;;;;;;5092300;28;21221;-70
2021/11/21 06:01:26;;;;;;;0.40;0.40;;;11.80;99.90;;;;;;5089356;28;20238;-70
2021/11/21 06:03:54;;;;;;;0.40;0.40;;;11.80;99.90;;;;;;5106379;28;20616;-70
2021/11/21 06:06:23;;;;;;;0.40;0.40;;;11.80;99.90;;;;;;5104963;28;20285;-70
2021/11/21 06:08:50;;;;;;;0.40;0.40;;;11.80;99.90;;;;;;5111767;28;20209;-70
2021/11/21 06:11:18;;;;;;;0.30;0.30;;;11.80;99.90;;;;;;5092933;27;20212;-70
2021/11/21 06:13:45;;;;;;;0.30;0.30;;;11.80;99.90;;;;;;5123981;27;20642;-70
2021/11/21 06:16:12;;;;;;;0.77;0.40;;;11.70;99.90;;;;;;5110981;28;21167;-70
2021/11/21 06:18:40;;;;;;;0.30;0.30;;;11.80;99.90;;;;;;5093375;28;20200;-70
2021/11/21 06:21:07;;;;;;;0.40;0.40;;;11.80;99.90;;;;;;5091089;28;20204;-70
2021/11/21 06:23:36;;;;;;;0.40;0.40;;;11.80;99.90;;;;;;5093467;28;20238;-70
2021/11/21 06:26:04;;;;;;;0.30;0.30;;;11.80;99.90;;;;;;5091691;28;20198;-70
2021/11/21 06:28:31;;;;;;;0.30;0.30;;;11.70;99.90;;;;;;5104260;28;20196;-70
2021/11/21 06:30:58;;;;;;;0.50;0.50;;;11.80;99.90;;;;;;5087845;28;20288;-70
2021/11/21 06:33:25;;;;;;;0.43;0.30;;;11.70;99.90;;;;;;5111532;28;20640;-70
2021/11/21 06:35:53;;;;;;;0.77;0.30;;;11.70;99.90;;;;;;5110670;28;20276;-70
2021/11/21 06:38:21;;;;;;;0.43;0.43;;;11.70;99.90;;;;;;5092705;28;20238;-70
2021/11/21 06:40:49;;;;;;;0.30;0.30;;;11.70;99.90;;;;;;5110436;28;20195;-70
2021/11/21 06:43:16;;;;;;;0.30;0.30;;;11.70;99.90;;;;;;5093204;28;20224;-70
2021/11/21 06:45:43;;;;;;;0.40;0.40;;;11.80;99.90;;;;;;5105996;28;20199;-70
2021/11/21 06:48:12;;;;;;;0.30;0.30;;;11.80;99.90;;;;;;5092759;28;20227;-70
2021/11/21 06:50:40;;;;;;;0.50;0.50;;;11.80;99.90;;;;;;5091811;28;20204;-70
2021/11/21 06:53:08;;;;;;;0.40;0.40;;;11.80;99.90;;;;;;5077607;28;20204;-70
2021/11/21 06:55:35;;;;;;;0.40;0.40;;;11.80;99.90;;;;;;5110550;28;20340;-70
2021/11/21 06:58:04;;;;;;;0.37;0.30;;;11.70;99.90;;;;;;5110328;28;20215;-70
2021/11/21 07:00:31;;;;;;;0.50;0.50;;;11.80;99.90;;;;;;5081654;28;20226;-70
2021/11/21 07:02:58;;;;;;;0.40;0.40;;;11.70;99.90;;;;;;5089004;28;20214;-70
2021/11/21 07:05:25;;;;;;;0.57;0.50;;;11.70;99.90;;;;;;5087965;28;20285;-70
2021/11/21 07:07:52;;;;;;;0.40;0.40;;;11.80;99.90;;;;;;5104699;28;20204;-69
2021/11/21 07:10:19;;;;;;;0.40;0.40;;;11.80;99.90;;;;;;5101900;28;20197;-70
2021/11/21 07:12:46;;;;;;;0.40;0.40;;;11.80;99.90;;;;;;5105119;28;20191;-70
2021/11/21 07:15:17;;;;;;;0.50;0.50;;;11.80;99.90;;;;;;5106901;28;20245;-70
2021/11/21 07:17:47;;;;;;;0.57;0.57;;;11.90;99.90;;;;;;5091692;28;20461;-70
2021/11/21 07:20:16;;;;;;;0.50;0.50;;;11.90;99.90;;;;;;5090150;28;20263;-69
2021/11/21 07:22:43;;;;;;;0.40;0.40;;;11.90;99.90;;;;;;5091790;28;20563;-70
2021/11/21 07:25:12;;;;;;;0.97;0.50;;;11.80;99.90;;;;;;5110645;28;20194;-70
2021/11/21 07:27:41;;;;;;;0.50;0.50;;;11.80;99.90;;;;;;5109454;28;20264;-70
2021/11/21 07:30:08;;;;;;;0.50;0.50;;;11.80;99.90;;;;;;5090516;28;20204;-70
2021/11/21 07:32:37;;;;;;;0.50;0.50;;;11.80;99.90;;;;;;5109993;28;20644;-69
2021/11/21 07:35:04;;;;;;;0.60;0.60;;;11.80;99.90;;;;;;5090788;28;20196;-69
2021/11/21 07:37:31;;;;;;;1.20;0.80;;;11.90;99.90;;;;;;5110159;28;20990;-69
2021/11/21 07:39:58;;;;;;;0.67;0.50;;;11.90;99.90;;;;;;5090798;28;20207;-69
2021/11/21 07:42:26;;;;;;;0.40;0.40;;;11.90;99.90;;;;;;5108048;28;20196;-69
2021/11/21 07:44:53;;;;;;;0.43;0.43;;;11.90;99.90;;;;;;5102463;28;20191;-69
2021/11/21 07:47:21;;;;;;;0.50;0.50;;;11.90;99.90;;;;;;5107429;28;20585;-70
2021/11/21 07:49:50;;;;;;;0.60;0.60;;;11.90;99.90;;;;;;5108504;28;20223;-70
2021/11/21 07:52:17;;;;;;;0.50;0.50;;;11.90;99.90;;;;;;5109952;28;20380;-69
2021/11/21 07:54:45;;;;;;;0.60;0.60;;;12.00;99.90;;;;;;5091269;28;20195;-69
2021/11/21 07:57:12;;;;;;;0.73;0.60;;;12.00;99.90;;;;;;5107724;28;20191;-69
2021/11/21 07:59:39;;;;;;;0.43;0.43;;;12.10;99.90;;;;;;5089188;28;20292;-69
2021/11/21 08:02:06;;;;;;;0.30;0.30;;;12.10;99.90;;;;;;5107667;28;20196;-69
2021/11/21 08:04:34;;;;;;;0.63;0.50;;;12.00;99.90;;;;;;5089776;28;20261;-70
2021/11/21 08:07:02;;;;;;;0.60;0.60;;;12.10;99.90;;;;;;5097850;28;20259;-69
2021/11/21 08:09:30;;;;;;;0.60;0.60;;;12.10;99.90;;;;;;5108789;28;20192;-69
2021/11/21 08:11:57;;;;;;;0.50;0.50;;;12.10;99.90;;;;;;5109490;28;20204;-70
2021/11/21 08:14:24;;;;;;;0.60;0.60;;;12.10;99.90;;;;;;5087594;28;20227;-69
2021/11/21 08:16:51;;;;;;;0.50;0.50;;;12.10;99.90;;;;;;5109384;28;20227;-69
2021/11/21 08:19:18;;;;;;;0.60;0.60;;;12.10;99.90;;;;;;5108533;28;20200;-69
2021/11/21 08:21:45;;;;;;;0.73;0.73;;;12.10;99.90;;;;;;5100409;28;20195;-69
2021/11/21 08:24:14;;;;;;;0.50;0.50;;;12.00;99.90;;;;;;5091001;28;20305;-71
2021/11/21 08:26:41;;;;;;;0.50;0.50;;;12.00;99.90;;;;;;5090605;28;20200;-70
2021/11/21 08:29:08;;;;;;;0.63;0.63;;;12.10;99.90;;;;;;5089667;28;20204;-70
2021/11/21 08:31:35;;;;;;;0.80;0.80;;;12.10;99.90;;;;;;5104003;28;20196;-69
2021/11/21 08:34:03;;;;;;;0.67;0.67;;;12.10;99.90;;;;;;5090324;28;20196;-70
2021/11/21 08:36:29;;;;;;;0.67;0.67;;;12.20;99.90;;;;;;5089890;28;20238;-70
2021/11/21 08:38:57;;;;;;;0.93;0.60;;;12.10;99.90;;;;;;5108356;28;20668;-69
2021/11/21 08:41:25;;;;;;;1.07;0.80;;;12.20;99.90;;;;;;5106432;28;20250;-69
2021/11/21 08:43:52;;;;;;;0.73;0.73;;;12.20;99.90;;;;;;5108508;28;20275;-69
2021/11/21 08:46:19;;;;;;;0.70;0.70;;;12.20;99.90;;;;;;5106336;28;20228;-69
2021/11/21 08:48:46;;;;;;;1.03;0.90;;;12.20;99.90;;;;;;5108954;28;20252;-70
2021/11/21 08:51:13;;;;;;;0.80;0.80;;;12.20;99.90;;;;;;5105146;28;20220;-70
2021/11/21 08:53:45;;;;;;;0.47;0.47;;;12.20;99.90;;;;;;5090265;28;20560;-70
2021/11/21 08:56:12;;;;;;;1.13;0.80;;;12.30;99.90;;;;;;5108261;28;20656;-69
2021/11/21 08:58:41;;;;;;;0.77;0.77;;;12.30;99.90;;;;;;5089132;28;20198;-70
2021/11/21 09:01:08;;;;;;;0.93;0.87;;;12.30;99.90;;;;;;5107782;28;20325;-69
2021/11/21 09:03:35;;;;;;;1.17;0.80;;;12.30;99.90;;;;;;5086935;28;20220;-69
2021/11/21 09:06:03;;;;;;;1.17;0.80;;;12.30;99.90;;;;;;5100087;28;20201;-70
2021/11/21 09:08:30;;;;;;;1.90;1.00;;;12.30;99.90;;;;;;5108799;28;20213;-70
2021/11/21 09:10:58;;;;;;;0.70;0.70;;;12.30;99.90;;;;;;5088849;28;20292;-70
2021/11/21 09:13:27;;;;;;;0.70;0.70;;;12.30;99.90;;;;;;5097959;28;20284;-69
2021/11/21 09:15:56;;;;;;;2.20;0.70;;;12.30;99.90;;;;;;5107611;28;20262;-70
2021/11/21 09:18:25;;;;;;;0.70;0.70;;;12.30;99.90;;;;;;5112504;28;20192;-69
2021/11/21 09:20:53;;;;;;;0.50;0.50;;;12.30;99.90;;;;;;5076835;28;20303;-70
2021/11/21 09:23:20;;;;;;;1.07;0.73;;;12.40;99.90;;;;;;5078421;28;20227;-70
2021/11/21 09:25:47;;;;;;;0.63;0.63;;;12.50;99.90;;;;;;5085906;28;20740;-70
2021/11/21 09:28:14;;;;;;;1.00;0.70;;;12.60;99.90;;;;;;5107272;28;20200;-70
2021/11/21 09:30:42;;;;;;;1.30;0.80;;;12.60;99.90;;;;;;5084037;28;20538;-70
2021/11/21 09:33:11;;;;;;;1.10;0.80;;;12.70;99.90;;;;;;5106496;28;20667;-70
2021/11/21 09:35:38;;;;;;;0.90;0.80;;;12.70;99.90;;;;;;5086235;28;20316;-70
2021/11/21 09:38:06;;;;;;;1.17;0.80;;;12.70;99.90;;;;;;5090067;28;20224;-69
2021/11/21 09:40:33;;;;;;;1.03;0.90;;;12.70;99.90;;;;;;5106759;28;20651;-69
2021/11/21 09:43:01;;;;;;;0.87;0.83;;;12.70;99.90;;;;;;5088077;28;20196;-69
2021/11/21 09:45:28;;;;;;;0.70;0.70;;;12.70;99.90;;;;;;5090081;28;20215;-69
2021/11/21 09:47:57;;;;;;;0.50;0.50;;;12.70;99.90;;;;;;5094772;28;20211;-69
2021/11/21 09:50:26;;;;;;;0.53;0.53;;;12.60;99.90;;;;;;5107046;28;20196;-69
2021/11/21 09:52:54;;;;;;;0.67;0.60;;;12.60;99.90;;;;;;5093537;28;20207;-71
2021/11/21 09:55:22;;;;;;;0.60;0.60;;;12.60;99.90;;;;;;5092734;28;20234;-69
2021/11/21 09:57:50;;;;;;;1.13;0.57;;;12.60;99.90;;;;;;5094158;28;20196;-70
2021/11/21 10:00:19;;;;;;;0.53;0.53;;;12.50;99.90;;;;;;5109799;28;20349;-69
2021/11/21 10:02:48;;;;;;;0.60;0.60;;;12.50;99.90;;;;;;5091905;28;20214;-69
2021/11/21 10:05:22;;;;;;;2.23;0.70;;;12.50;99.90;;;;;;5109238;28;20224;-69
2021/11/21 10:08:01;;;;;;;1.10;0.60;;;12.40;99.90;;;;;;5093179;28;20199;-69
2021/11/21 10:10:28;;;;;;;0.60;0.60;;;12.30;99.90;;;;;;5109787;28;20675;-69
2021/11/21 10:12:55;;;;;;;0.67;0.67;;;12.30;99.90;;;;;;5112170;28;20669;-69
2021/11/21 10:15:22;;;;;;;0.57;0.50;;;12.30;99.90;;;;;;5107929;28;20257;-69
2021/11/21 10:17:56;;;;;;;0.50;0.50;;;12.30;99.90;;;;;;5093073;28;20594;-69
2021/11/21 10:20:24;;;;;;;0.53;0.53;;;12.40;99.90;;;;;;5125042;27;20200;-70
2021/11/21 10:23:03;;;;;;;1.53;1.00;;;12.50;99.90;;;;;;5109928;28;20246;-70
2021/11/21 10:25:45;;;;;;;0.70;0.70;;;12.70;99.90;;;;;;5088884;28;20227;-69
2021/11/21 10:28:17;;;;;;;0.70;0.60;;;12.80;99.90;;;;;;5106688;28;20252;-69
2021/11/21 10:31:09;;;;;;;2.30;1.10;;;12.80;99.90;;;;;;5090457;28;20211;-69
2021/11/21 10:33:39;;;;;;;1.87;1.27;;;12.80;99.90;;;;;;5092757;28;20254;-69
2021/11/21 10:36:09;;;;;;;1.90;0.80;;;12.90;99.90;;;;;;5109955;28;20241;-70
2021/11/21 10:38:41;;;;;;;0.70;0.70;;;12.90;99.90;;;;;;5108201;28;20541;-70
2021/11/21 10:41:12;;;;;;;0.93;0.70;;;12.90;99.90;;;;;;5107799;28;20199;-69
2021/11/21 10:44:01;;;;;;;1.27;0.70;;;12.90;99.90;;;;;;5111320;28;20230;-70
2021/11/21 10:46:32;;;;;;;0.73;0.73;;;13.00;99.90;;;;;;5094416;28;20200;-69
2021/11/21 10:49:29;;;;;;;1.03;0.70;;;13.10;99.90;;;;;;5111095;28;20647;-70
2021/11/21 10:52:13;;;;;;;2.37;0.93;;;13.10;99.90;;;;;;5096461;28;20714;-69
2021/11/21 10:54:45;;;;;;;1.87;0.80;;;13.20;99.90;;;;;;5108258;28;20283;-69
2021/11/21 10:57:15;;;;;;;0.60;0.60;;;13.30;99.90;;;;;;5109362;28;20562;-69
2021/11/21 10:59:51;;;;;;;2.07;0.70;;;13.40;99.90;;;;;;5095657;28;20727;-69
2021/11/21 11:02:22;;;;;;;2.00;0.60;;;13.60;99.90;;;;;;5107835;28;20715;-69
2021/11/21 11:05:08;;;;;;;1.40;0.43;;;13.80;99.90;;;;;;5090847;28;20613;-71
2021/11/21 11:07:39;;;;;;;0.67;0.67;;;13.90;99.90;;;;;;5092899;28;20215;-70
2021/11/21 11:10:10;;;;;;;0.80;0.80;;;14.00;99.90;;;;;;5108886;28;20192;-70
2021/11/21 11:12:38;;;;;;;2.30;0.70;;;14.10;99.90;;;;;;5097094;28;20196;-70
2021/11/21 11:15:07;;;;;;;1.37;0.90;;;14.10;99.90;;;;;;5089153;28;20189;-70
2021/11/21 11:17:35;;;;;;;0.63;0.63;;;14.10;99.90;;;;;;5092054;28;20267;-70
2021/11/21 11:20:04;;;;;;;1.50;0.80;;;14.10;99.90;;;;;;5094215;28;20852;-70
2021/11/21 11:22:32;;;;;;;1.10;0.73;;;14.10;99.90;;;;;;5091000;28;20263;-70
2021/11/21 11:25:03;;;;;;;0.67;0.50;;;14.00;99.90;;;;;;5110096;28;20312;-70
2021/11/21 11:27:42;;;;;;;0.90;0.60;;;13.90;99.90;;;;;;5091879;28;20238;-70
2021/11/21 11:30:09;;;;;;;1.63;1.53;;;13.90;99.90;;;;;;5108314;28;20581;-70
2021/11/21 11:32:38;;;;;;;1.97;1.30;;;13.90;99.90;;;;;;5091259;28;20299;-70
2021/11/21 11:35:07;;;;;;;1.90;1.30;;;13.90;99.90;;;;;;5088530;28;20242;-70
2021/11/21 11:37:39;;;;;;;1.50;1.00;;;13.80;99.90;;;;;;5091339;28;20623;-70
2021/11/21 11:40:27;;;;;;;0.77;0.70;;;13.80;99.90;;;;;;5090976;28;20208;-70
2021/11/21 11:42:57;;;;;;;1.23;1.00;;;13.80;99.90;;;;;;5090928;28;20205;-70
2021/11/21 11:45:41;;;;;;;1.87;0.80;;;13.80;99.90;;;;;;5085711;28;20291;-70
2021/11/21 11:48:32;;;;;;;0.90;0.70;;;13.70;99.90;;;;;;5109480;28;20193;-70
2021/11/21 11:51:02;;;;;;;1.00;0.80;;;13.60;99.90;;;;;;5108549;28;20224;-70
2021/11/21 11:53:35;;;;;;;1.73;0.93;;;13.60;99.90;;;;;;5088951;28;20201;-69
2021/11/21 11:56:27;;;;;;;0.90;0.50;;;13.50;99.90;;;;;;5100033;28;20223;-69
2021/11/21 11:58:58;;;;;;;0.73;0.73;;;13.40;99.90;;;;;;4996979;28;20212;-69
2021/11/21 12:02:07;;;;;;;2.13;0.60;;;13.40;99.90;;;;;;5023528;28;20493;-69
2021/11/21 12:04:57;;;;;;;0.70;0.70;;;13.30;99.90;;;;;;5012739;28;20274;-69
2021/11/21 12:07:38;;;;;;;1.00;0.60;;;13.30;99.90;;;;;;5026382;28;20579;-69
2021/11/21 12:10:15;;;;;;;0.80;0.80;;;13.30;99.90;;;;;;5009334;28;20218;-69
2021/11/21 12:13:07;;;;;;;0.93;0.70;;;13.20;99.90;;;;;;5009268;28;20301;-69
2021/11/21 12:15:51;;;;;;;2.40;0.90;;;13.10;99.90;;;;;;5013847;28;20708;-70
2021/11/21 12:18:20;;;;;;;2.60;0.93;;;13.10;99.90;;;;;;5006487;28;20326;-69
2021/11/21 12:20:50;;;;;;;2.83;1.20;;;13.00;99.90;;;;;;5000875;28;20230;-69
2021/11/21 12:23:51;;;;;;;4.43;1.00;;;12.90;99.90;;;;;;5025506;28;20207;-69
2021/11/21 12:26:23;;;;;;;2.87;0.93;;;12.80;99.90;;;;;;5008348;28;20226;-69
2021/11/21 12:29:00;;;;;;;2.77;1.20;;;12.60;99.90;;;;;;5008708;28;20246;-68
2021/11/21 12:31:37;;;;;;;0.93;0.70;;;12.30;99.90;;;;;;5024651;28;20213;-68
2021/11/21 12:34:44;;;;;;;0.90;0.70;;;12.20;99.90;;;;;;5025281;28;20202;-69
2021/11/21 12:37:26;;;;;;;1.17;0.70;;;12.20;99.90;;;;;;5109348;28;20302;-68
2021/11/21 12:39:57;;;;;;;0.70;0.70;;;12.30;99.90;;;;;;5085460;28;20200;-68
2021/11/21 12:42:26;;;;;;;1.50;0.80;;;12.30;99.90;;;;;;5102486;28;20199;-68
2021/11/21 12:45:08;;;;;;;1.20;0.60;;;12.30;99.90;;;;;;5101939;28;20268;-68
2021/11/21 12:47:38;;;;;;;0.60;0.60;;;12.30;99.90;;;;;;5108636;28;20675;-68
2021/11/21 12:50:08;;;;;;;2.83;2.53;;;12.30;99.90;;;;;;5117071;27;20202;-68
2021/11/21 12:52:48;;;;;;;1.73;1.50;;;12.30;99.90;;;;;;5099582;28;20241;-69
2021/11/21 12:55:16;;;;;;;1.60;1.30;;;12.40;99.90;;;;;;5117750;28;20283;-68
2021/11/21 12:57:47;;;;;;;1.10;1.00;;;12.30;99.90;;;;;;5081644;28;20663;-69
2021/11/21 13:00:15;;;;;;;1.20;0.93;;;12.30;99.90;;;;;;5087157;28;20200;-68